createdAt,value
2018-07-06T00:01:26.314Z,83.43
2018-07-06T00:04:06.226Z,84.49
2018-07-06T00:06:45.931Z,84.28
2018-07-06T00:09:25.687Z,84.90
2018-07-06T00:12:05.570Z,84.64
2018-07-06T00:14:45.451Z,84.98
2018-07-06T00:17:25.130Z,84.83
2018-07-06T00:20:05.098Z,85.50
2018-07-06T00:22:44.838Z,85.61
2018-07-06T00:25:24.631Z,85.89
2018-07-06T00:28:04.431Z,85.79
2018-07-06T00:30:44.271Z,86.05
2018-07-06T00:33:24.062Z,86.08
2018-07-06T00:36:03.882Z,86.56
2018-07-06T00:38:43.631Z,86.13
2018-07-06T00:41:24.098Z,86.15
2018-07-06T00:44:03.726Z,86.87
2018-07-06T00:46:43.557Z,86.82
2018-07-06T00:49:23.306Z,86.98
2018-07-06T00:52:03.275Z,86.08
2018-07-06T00:54:43.173Z,86.57
2018-07-06T00:57:22.968Z,86.77
2018-07-06T01:00:02.672Z,87.18
2018-07-06T01:02:42.383Z,85.98
2018-07-06T01:05:22.240Z,86.29
2018-07-06T01:08:01.952Z,86.18
2018-07-06T01:10:41.751Z,86.71
2018-07-06T01:13:21.462Z,87.14
2018-07-06T01:16:01.214Z,87.41
2018-07-06T01:18:41.270Z,86.82
2018-07-06T01:21:21.041Z,87.51
2018-07-06T01:24:00.629Z,87.43
2018-07-06T01:26:40.294Z,87.06
2018-07-06T01:29:20.108Z,87.02
2018-07-06T01:32:00.027Z,86.58
2018-07-06T01:34:39.695Z,87.22
2018-07-06T01:37:19.470Z,87.47
2018-07-06T01:39:59.271Z,86.86
2018-07-06T01:42:39.046Z,85.98
2018-07-06T01:45:18.993Z,86.91
2018-07-06T01:47:58.826Z,86.29
2018-07-06T01:50:38.594Z,86.93
2018-07-06T01:53:18.418Z,86.12
2018-07-06T02:02:54.824Z,87.23
2018-07-06T02:05:34.663Z,87.14
2018-07-06T02:08:14.199Z,87.10
2018-07-06T02:10:53.899Z,87.74
2018-07-06T02:13:33.658Z,87.28
2018-07-06T02:16:13.175Z,87.99
2018-07-06T02:18:52.999Z,88.13
2018-07-06T02:21:32.865Z,87.58
2018-07-06T02:24:12.595Z,88.12
2018-07-06T02:26:52.428Z,87.80
2018-07-06T02:29:32.197Z,87.44
2018-07-06T02:32:11.862Z,87.21
2018-07-06T02:34:51.665Z,87.12
2018-07-06T02:37:31.463Z,87.04
2018-07-06T02:40:11.256Z,87.13
2018-07-06T02:42:50.938Z,86.85
2018-07-06T02:45:30.748Z,86.66
2018-07-06T02:48:10.427Z,86.54
2018-07-06T02:50:50.173Z,86.30
2018-07-06T02:53:29.967Z,86.70
2018-07-06T02:56:09.677Z,87.51
2018-07-06T02:58:49.512Z,86.72
2018-07-06T03:01:29.435Z,86.90
2018-07-06T03:04:09.140Z,86.35
2018-07-06T03:06:48.959Z,86.62
2018-07-06T03:09:28.891Z,87.47
2018-07-06T03:12:08.683Z,87.49
2018-07-06T03:14:48.485Z,87.55
2018-07-06T03:17:28.365Z,87.65
2018-07-06T03:20:08.204Z,87.56
2018-07-06T03:22:47.828Z,86.78
2018-07-06T03:25:27.636Z,86.73
2018-07-06T03:28:07.533Z,87.02
2018-07-06T03:30:47.270Z,87.62
2018-07-06T03:33:27.247Z,87.27
2018-07-06T03:36:06.913Z,88.14
2018-07-06T03:38:50.638Z,88.13
2018-07-06T03:41:30.434Z,88.07
2018-07-06T03:44:10.083Z,88.65
2018-07-06T03:46:49.815Z,88.80
2018-07-06T03:49:29.676Z,90.30
2018-07-06T03:52:09.378Z,90.66
2018-07-06T03:54:49.269Z,91.21
2018-07-06T03:57:28.863Z,91.37
2018-07-06T04:00:08.551Z,92.25
2018-07-06T04:02:48.310Z,92.34
2018-07-06T04:05:28.257Z,92.94
2018-07-06T04:08:08.067Z,93.26
2018-07-06T04:10:47.795Z,94.17
2018-07-06T04:13:27.498Z,95.28
2018-07-06T04:16:07.577Z,96.04
2018-07-06T04:18:47.410Z,96.66
2018-07-06T04:21:27.147Z,97.00
2018-07-06T04:24:06.823Z,97.98
2018-07-06T04:26:46.782Z,98.96
2018-07-06T04:29:26.289Z,99.92
2018-07-06T04:32:06.198Z,100.00
2018-07-06T04:34:45.990Z,100.00
2018-07-06T04:37:25.778Z,100.00
2018-07-06T04:40:05.635Z,100.00
2018-07-06T04:42:45.328Z,100.00
2018-07-06T04:45:25.120Z,100.00
2018-07-06T04:48:04.962Z,100.00
2018-07-06T04:50:44.744Z,100.00
2018-07-06T04:53:24.540Z,100.00
2018-07-06T04:56:04.371Z,100.00
2018-07-06T04:58:44.222Z,100.00
2018-07-06T05:01:23.821Z,100.00
2018-07-06T05:04:03.494Z,100.00
2018-07-06T05:06:43.342Z,100.00
2018-07-06T05:09:23.196Z,100.00
2018-07-06T05:12:02.828Z,100.00
2018-07-06T05:14:42.490Z,100.00
2018-07-06T05:17:22.304Z,100.00
2018-07-06T05:20:04.793Z,100.00
2018-07-06T05:22:44.650Z,100.00
2018-07-06T05:25:24.446Z,100.00
2018-07-06T05:28:04.260Z,100.00
2018-07-06T05:30:43.826Z,100.00
2018-07-06T05:33:23.683Z,100.00
2018-07-06T05:36:03.638Z,100.00
2018-07-06T05:38:43.343Z,100.00
2018-07-06T05:41:23.064Z,100.00
2018-07-06T05:44:02.843Z,100.00
2018-07-06T05:46:42.647Z,100.00
2018-07-06T05:49:22.396Z,100.00
2018-07-06T05:52:02.182Z,100.00
2018-07-06T05:54:42.120Z,100.00
2018-07-06T05:57:22.189Z,100.00
2018-07-06T06:00:01.944Z,100.00
2018-07-06T06:02:41.832Z,100.00
2018-07-06T06:05:21.427Z,100.00
2018-07-06T06:07:48.694Z,100.00
2018-07-06T06:10:17.475Z,100.00
2018-07-06T06:12:45.991Z,100.00
2018-07-06T06:15:14.489Z,100.00
2018-07-06T06:17:43.019Z,100.00
2018-07-06T06:20:15.178Z,100.00
2018-07-06T06:22:43.696Z,100.00
2018-07-06T06:25:12.602Z,100.00
2018-07-06T06:27:41.102Z,100.00
2018-07-06T06:30:09.921Z,100.00
2018-07-06T06:32:39.163Z,100.00
2018-07-06T06:35:07.699Z,100.00
2018-07-06T06:37:36.219Z,100.00
2018-07-06T06:40:04.776Z,100.00
2018-07-06T06:42:33.703Z,100.00
2018-07-06T06:45:02.234Z,100.00
2018-07-06T06:47:30.864Z,100.00
2018-07-06T06:49:59.458Z,100.00
2018-07-06T06:52:27.982Z,100.00
2018-07-06T06:54:56.661Z,100.00
2018-07-06T06:57:25.398Z,100.00
2018-07-06T06:59:53.986Z,99.71
2018-07-06T07:02:22.579Z,100.00
2018-07-06T07:04:51.223Z,99.17
2018-07-06T07:07:19.843Z,98.80
2018-07-06T07:09:48.583Z,98.31
2018-07-06T07:12:17.118Z,97.42
2018-07-06T07:14:45.703Z,96.74
2018-07-06T07:17:14.609Z,97.92
2018-07-06T07:19:43.154Z,96.71
2018-07-06T07:22:11.770Z,98.38
2018-07-06T07:24:40.294Z,96.08
2018-07-06T07:27:08.807Z,96.37
2018-07-06T07:29:37.402Z,97.04
2018-07-06T07:32:05.946Z,97.18
2018-07-06T07:34:34.395Z,95.59
2018-07-06T07:37:02.894Z,95.27
2018-07-06T07:39:31.582Z,95.38
2018-07-06T07:42:00.175Z,93.51
2018-07-06T07:44:28.662Z,93.50
2018-07-06T07:46:57.179Z,92.80
2018-07-06T07:49:25.703Z,93.36
2018-07-06T07:52:08.987Z,94.42
2018-07-06T07:54:48.406Z,92.36
2018-07-06T07:57:16.990Z,92.27
2018-07-06T07:59:45.602Z,92.33
2018-07-06T08:02:14.047Z,89.92
2018-07-06T08:04:42.747Z,88.75
2018-07-06T08:07:11.514Z,86.94
2018-07-06T08:09:40.312Z,85.95
2018-07-06T08:12:08.774Z,85.26
2018-07-06T08:14:37.823Z,82.21
2018-07-06T08:17:06.436Z,83.25
2018-07-06T08:19:35.305Z,81.11
2018-07-06T08:22:03.841Z,80.60
2018-07-06T08:24:32.327Z,79.38
2018-07-06T08:27:00.886Z,78.45
2018-07-06T08:29:29.390Z,77.00
2018-07-06T08:31:57.890Z,76.93
2018-07-06T08:34:37.562Z,78.25
2018-07-06T08:37:29.951Z,77.98
2018-07-06T08:39:59.164Z,76.59
2018-07-06T08:42:29.120Z,74.78
2018-07-06T08:44:58.656Z,75.55
2018-07-06T08:47:27.263Z,75.81
2018-07-06T08:49:56.797Z,74.45
2018-07-06T08:52:25.310Z,76.95
2018-07-06T08:54:54.126Z,73.52
2018-07-06T08:57:23.682Z,71.70
2018-07-06T08:59:52.903Z,69.83
2018-07-06T09:02:21.858Z,70.83
2018-07-06T09:04:51.131Z,67.69
2018-07-06T09:07:19.613Z,67.20
2018-07-06T09:09:48.198Z,66.72
2018-07-06T09:12:16.687Z,67.08
2018-07-06T09:14:45.119Z,70.83
2018-07-06T09:17:14.997Z,70.65
2018-07-06T09:19:44.035Z,70.84
2018-07-06T09:22:13.087Z,73.33
2018-07-06T09:24:42.054Z,72.78
2018-07-06T09:27:10.783Z,69.71
2018-07-06T09:29:39.329Z,67.70
2018-07-06T09:32:08.450Z,67.15
2018-07-06T09:34:37.210Z,65.92
2018-07-06T09:37:05.837Z,65.68
2018-07-06T09:39:34.506Z,63.93
2018-07-06T09:42:03.509Z,67.58
2018-07-06T09:44:32.068Z,68.27
2018-07-06T09:47:00.678Z,71.38
2018-07-06T09:49:29.175Z,70.46
2018-07-06T09:51:58.319Z,71.22
2018-07-06T09:54:26.895Z,71.13
2018-07-06T09:56:55.439Z,72.29
2018-07-06T09:59:24.079Z,73.92
2018-07-06T10:01:52.991Z,75.67
2018-07-06T10:04:21.574Z,77.12
2018-07-06T10:06:50.166Z,76.67
2018-07-06T10:09:18.634Z,76.74
2018-07-06T10:11:47.186Z,76.81
2018-07-06T10:14:15.659Z,77.46
2018-07-06T10:16:44.295Z,78.12
2018-07-06T10:19:12.838Z,78.42
2018-07-06T10:21:41.374Z,78.11
2018-07-06T10:24:09.898Z,76.86
2018-07-06T10:26:38.497Z,76.62
2018-07-06T10:29:20.128Z,77.02
2018-07-06T10:32:26.426Z,76.77
2018-07-06T10:34:55.174Z,75.20
2018-07-06T10:37:24.035Z,73.70
2018-07-06T10:39:56.793Z,73.11
2018-07-06T10:42:25.211Z,72.32
2018-07-06T10:44:53.739Z,72.14
2018-07-06T10:47:22.259Z,70.70
2018-07-06T10:49:50.696Z,71.09
2018-07-06T10:52:19.345Z,70.91
2018-07-06T10:54:48.487Z,71.43
2018-07-06T10:57:17.116Z,73.08
2018-07-06T10:59:45.590Z,69.38
2018-07-06T11:02:14.022Z,67.72
2018-07-06T11:04:42.611Z,68.33
2018-07-06T11:07:11.357Z,67.85
2018-07-06T11:09:39.978Z,65.48
2018-07-06T11:12:08.456Z,63.04
2018-07-06T11:14:36.966Z,60.89
2018-07-06T11:17:05.589Z,60.96
2018-07-06T11:19:34.262Z,60.48
2018-07-06T11:22:02.812Z,59.62
2018-07-06T11:24:31.524Z,56.96
2018-07-06T11:27:00.191Z,58.67
2018-07-06T11:29:28.712Z,58.37
2018-07-06T11:31:57.226Z,58.96
2018-07-06T11:34:25.867Z,59.98
2018-07-06T11:36:54.345Z,59.64
2018-07-06T11:39:22.807Z,59.03
2018-07-06T11:41:51.482Z,59.00
2018-07-06T11:44:20.011Z,57.79
2018-07-06T11:46:48.430Z,55.67
2018-07-06T11:49:16.942Z,57.31
2018-07-06T11:51:45.599Z,58.00
2018-07-06T11:54:14.236Z,55.26
2018-07-06T11:56:42.683Z,52.79
2018-07-06T11:59:11.205Z,51.40
2018-07-06T12:01:39.635Z,51.48
2018-07-06T12:04:08.288Z,50.22
2018-07-06T12:06:36.724Z,49.52
2018-07-06T12:09:05.955Z,49.55
2018-07-06T12:11:34.582Z,49.27
2018-07-06T12:14:03.327Z,49.73
2018-07-06T12:16:32.063Z,50.98
2018-07-06T12:19:00.568Z,50.08
2018-07-06T12:21:29.128Z,50.30
2018-07-06T12:23:57.635Z,50.84
2018-07-06T12:26:26.110Z,51.51
2018-07-06T12:28:54.589Z,49.52
2018-07-06T12:31:23.138Z,48.85
2018-07-06T12:33:51.564Z,50.92
2018-07-06T12:36:20.090Z,50.42
2018-07-06T12:38:48.830Z,52.61
2018-07-06T12:41:17.456Z,53.74
2018-07-06T12:43:46.115Z,52.87
2018-07-06T12:46:14.978Z,53.70
2018-07-06T12:48:43.579Z,55.90
2018-07-06T12:51:12.136Z,53.63
2018-07-06T12:53:40.726Z,52.65
2018-07-06T12:56:09.251Z,54.41
2018-07-06T12:58:37.778Z,51.96
2018-07-06T13:01:06.491Z,52.32
2018-07-06T13:03:35.026Z,52.93
2018-07-06T13:06:03.640Z,52.74
2018-07-06T13:08:32.289Z,51.48
2018-07-06T13:11:00.855Z,50.31
2018-07-06T13:13:29.287Z,48.47
2018-07-06T13:15:57.904Z,48.18
2018-07-06T13:18:26.673Z,48.59
2018-07-06T13:20:55.142Z,45.78
2018-07-06T13:23:23.591Z,46.57
2018-07-06T13:25:52.195Z,45.89
2018-07-06T13:28:20.901Z,46.12
2018-07-06T13:30:49.454Z,47.19
2018-07-06T13:33:18.051Z,47.95
2018-07-06T13:35:46.576Z,46.48
2018-07-06T13:38:15.147Z,47.65
2018-07-06T13:40:45.010Z,47.21
2018-07-06T13:43:13.841Z,46.57
2018-07-06T13:45:42.398Z,44.14
2018-07-06T13:48:10.985Z,37.38
2018-07-06T13:50:39.499Z,37.72
2018-07-06T13:53:08.176Z,39.63
2018-07-06T13:55:36.743Z,37.32
2018-07-06T13:58:05.341Z,37.64
2018-07-06T14:00:34.040Z,32.60
2018-07-06T14:03:02.578Z,29.79
2018-07-06T14:05:31.102Z,26.20
2018-07-06T14:07:59.678Z,20.88
2018-07-06T14:10:28.158Z,19.57
2018-07-06T14:12:56.620Z,20.85
2018-07-06T14:15:25.134Z,19.83
2018-07-06T14:17:53.776Z,21.14
2018-07-06T14:20:22.273Z,24.79
2018-07-06T14:22:50.874Z,27.14
2018-07-06T14:25:19.505Z,31.47
2018-07-06T14:27:48.181Z,30.08
2018-07-06T14:30:16.696Z,27.58
2018-07-06T14:32:45.311Z,26.89
2018-07-06T14:35:13.944Z,25.91
2018-07-06T14:37:42.716Z,23.98
2018-07-06T14:40:11.290Z,26.11
2018-07-06T14:42:39.927Z,24.53
2018-07-06T14:45:08.592Z,23.13
2018-07-06T14:47:37.130Z,20.65
2018-07-06T14:50:05.719Z,20.41
2018-07-06T14:52:34.279Z,19.71
2018-07-06T14:55:03.094Z,20.78
2018-07-06T14:57:31.623Z,20.69
2018-07-06T15:00:00.660Z,20.86
2018-07-06T15:02:29.195Z,19.44
2018-07-06T15:04:58.096Z,19.55
2018-07-06T15:07:26.656Z,19.31
2018-07-06T15:09:55.224Z,18.82
2018-07-06T15:12:23.811Z,20.11
2018-07-06T15:14:52.491Z,20.04
2018-07-06T15:17:20.931Z,18.02
2018-07-06T15:19:49.454Z,19.25
2018-07-06T15:22:18.014Z,18.40
2018-07-06T15:24:46.670Z,18.21
2018-07-06T15:27:15.424Z,21.02
2018-07-06T15:29:43.970Z,20.66
2018-07-06T15:32:12.542Z,19.02
2018-07-06T15:34:41.231Z,18.43
2018-07-06T15:37:09.852Z,18.95
2018-07-06T15:39:42.158Z,21.47
2018-07-06T15:42:10.811Z,26.30
2018-07-06T15:44:39.589Z,32.17
2018-07-06T15:47:08.117Z,35.66
2018-07-06T15:49:36.760Z,38.33
2018-07-06T15:52:05.191Z,40.40
2018-07-06T15:54:33.711Z,42.45
2018-07-06T15:57:02.255Z,43.83
2018-07-06T15:59:30.806Z,45.34
2018-07-06T16:01:59.708Z,46.16
2018-07-06T16:04:28.213Z,47.15
2018-07-06T16:06:56.688Z,47.51
2018-07-06T16:09:25.322Z,47.35
2018-07-06T16:11:54.787Z,48.05
2018-07-06T16:14:23.295Z,48.79
2018-07-06T16:16:51.746Z,48.94
2018-07-06T16:19:20.598Z,49.37
2018-07-06T16:21:49.174Z,48.65
2018-07-06T16:24:17.715Z,49.78
2018-07-06T16:26:46.179Z,51.19
2018-07-06T16:29:14.667Z,51.84
2018-07-06T16:31:43.184Z,53.16
2018-07-06T16:34:11.723Z,52.86
2018-07-06T16:36:40.220Z,52.81
2018-07-06T16:39:08.826Z,53.29
2018-07-06T16:41:37.282Z,52.55
2018-07-06T16:44:06.049Z,52.92
2018-07-06T16:46:34.531Z,52.51
2018-07-06T16:49:03.018Z,52.19
2018-07-06T16:51:32.249Z,51.32
2018-07-06T16:54:00.828Z,50.22
2018-07-06T16:56:29.671Z,46.56
2018-07-06T16:58:58.360Z,42.35
2018-07-06T17:01:26.920Z,38.17
2018-07-06T17:03:55.783Z,30.88
2018-07-06T17:06:24.235Z,28.74
2018-07-06T17:08:52.760Z,25.84
2018-07-06T17:11:21.364Z,25.69
2018-07-06T17:13:50.284Z,24.51
2018-07-06T17:16:19.171Z,25.89
2018-07-06T17:18:47.639Z,22.94
2018-07-06T17:21:16.226Z,20.15
2018-07-06T17:23:44.744Z,20.81
2018-07-06T17:26:17.599Z,21.35
2018-07-06T17:28:46.111Z,20.62
2018-07-06T17:31:14.792Z,20.65
2018-07-06T17:33:43.400Z,20.55
2018-07-06T17:36:11.959Z,20.40
2018-07-06T17:38:40.548Z,19.68
2018-07-06T17:41:09.132Z,19.85
2018-07-06T17:43:37.759Z,21.69
2018-07-06T17:46:06.275Z,21.38
2018-07-06T17:48:34.820Z,22.44
2018-07-06T17:51:03.549Z,23.71
2018-07-06T17:53:32.419Z,28.44
2018-07-06T17:56:01.021Z,33.11
2018-07-06T17:58:29.503Z,35.88
2018-07-06T18:00:58.579Z,39.11
2018-07-06T18:03:27.125Z,41.03
2018-07-06T18:05:55.623Z,43.36
2018-07-06T18:08:24.069Z,44.16
2018-07-06T18:10:52.665Z,47.13
2018-07-06T18:13:21.277Z,48.46
2018-07-06T18:15:49.831Z,50.21
2018-07-06T18:18:18.509Z,52.17
2018-07-06T18:20:47.138Z,54.69
2018-07-06T18:23:15.912Z,55.44
2018-07-06T18:25:44.459Z,56.44
2018-07-06T18:28:13.329Z,57.85
2018-07-06T18:30:41.784Z,58.95
2018-07-06T18:33:10.321Z,58.85
2018-07-06T18:35:38.844Z,59.64
2018-07-06T18:38:07.459Z,60.73
2018-07-06T18:40:35.943Z,60.26
2018-07-06T18:43:04.496Z,61.31
2018-07-06T18:45:33.236Z,61.54
2018-07-06T18:48:01.792Z,61.20
2018-07-06T18:50:30.317Z,62.01
2018-07-06T18:52:58.963Z,61.90
2018-07-06T18:55:27.548Z,61.72
2018-07-06T18:57:55.995Z,62.49
2018-07-06T19:00:24.596Z,62.76
2018-07-06T19:02:53.098Z,63.20
2018-07-06T19:05:21.570Z,63.39
2018-07-06T19:07:50.046Z,64.16
2018-07-06T19:10:18.575Z,64.69
2018-07-06T19:12:47.363Z,65.22
2018-07-06T19:15:15.911Z,65.23
2018-07-06T19:17:44.357Z,65.93
2018-07-06T19:20:12.879Z,66.06
2018-07-06T19:22:41.422Z,65.68
2018-07-06T19:25:09.983Z,66.20
2018-07-06T19:27:38.976Z,66.36
2018-07-06T19:30:07.538Z,66.77
2018-07-06T19:32:36.167Z,66.56
2018-07-06T19:35:04.718Z,67.33
2018-07-06T19:37:33.263Z,67.32
2018-07-06T19:40:01.687Z,67.43
2018-07-06T19:42:30.235Z,68.33
2018-07-06T19:44:58.718Z,68.38
2018-07-06T19:47:27.196Z,68.55
2018-07-06T19:49:55.678Z,69.01
2018-07-06T19:52:24.158Z,69.74
2018-07-06T19:54:52.894Z,70.77
2018-07-06T19:57:21.382Z,71.09
2018-07-06T19:59:49.963Z,71.45
2018-07-06T20:02:18.506Z,71.57
2018-07-06T20:04:47.107Z,72.15
2018-07-06T20:07:15.766Z,72.23
2018-07-06T20:09:44.267Z,72.68
2018-07-06T20:12:12.939Z,73.00
2018-07-06T20:14:41.687Z,73.45
2018-07-06T20:17:10.318Z,72.17
2018-07-06T20:19:38.807Z,72.21
2018-07-06T20:22:07.335Z,72.72
2018-07-06T20:24:35.866Z,72.52
2018-07-06T20:27:04.523Z,72.59
2018-07-06T20:29:33.302Z,73.91
2018-07-06T20:32:01.844Z,75.03
2018-07-06T20:34:30.762Z,76.17
2018-07-06T20:36:59.387Z,77.02
2018-07-06T20:39:27.870Z,77.05
2018-07-06T20:41:56.347Z,77.39
2018-07-06T20:44:24.861Z,78.44
2018-07-06T20:46:53.430Z,79.60
2018-07-06T20:49:22.044Z,78.35
2018-07-06T20:51:50.787Z,78.43
2018-07-06T20:54:19.351Z,79.14
2018-07-06T20:56:47.838Z,80.38
2018-07-06T20:59:16.477Z,82.62
2018-07-06T21:01:45.027Z,85.28
2018-07-06T21:04:13.676Z,85.56
2018-07-06T21:06:42.150Z,85.40
2018-07-06T21:09:10.679Z,85.33
2018-07-06T21:11:39.561Z,85.95
2018-07-06T21:14:08.042Z,86.05
2018-07-06T21:16:36.503Z,86.08
2018-07-06T21:19:05.027Z,86.78
2018-07-06T21:21:33.630Z,86.52
2018-07-06T21:24:02.298Z,86.24
2018-07-06T21:26:30.996Z,86.27
2018-07-06T21:28:59.521Z,86.05
2018-07-06T21:31:28.051Z,86.09
2018-07-06T21:33:56.592Z,84.82
2018-07-06T21:36:25.206Z,84.47
2018-07-06T21:38:53.767Z,83.77
2018-07-06T21:41:22.334Z,82.14
2018-07-06T21:43:51.079Z,82.70
2018-07-06T21:46:19.943Z,82.28
2018-07-06T21:48:48.398Z,82.37
2018-07-06T21:51:16.894Z,83.15
2018-07-06T21:53:45.387Z,82.82
2018-07-06T21:56:13.907Z,81.19
2018-07-06T21:58:42.408Z,80.19
2018-07-06T22:01:10.941Z,80.77
2018-07-06T22:03:39.545Z,80.68
2018-07-06T22:06:08.102Z,79.88
2018-07-06T22:08:36.758Z,78.76
2018-07-06T22:11:05.416Z,78.82
2018-07-06T22:13:33.992Z,78.65
2018-07-06T22:16:02.555Z,77.48
2018-07-06T22:18:31.087Z,77.33
2018-07-06T22:20:59.804Z,76.46
2018-07-06T22:23:28.751Z,76.08
2018-07-06T22:25:57.266Z,76.02
2018-07-06T22:28:25.759Z,76.57
2018-07-06T22:30:54.239Z,76.86
2018-07-06T22:33:22.803Z,76.67
2018-07-06T22:35:51.215Z,77.13
2018-07-06T22:38:19.837Z,77.30
2018-07-06T22:40:48.490Z,77.03
2018-07-06T22:43:16.979Z,77.60
2018-07-06T22:45:45.456Z,78.20
2018-07-06T22:48:13.879Z,78.42
2018-07-06T22:50:42.391Z,79.58
2018-07-06T22:53:10.931Z,78.91
2018-07-06T22:55:39.489Z,79.77
2018-07-06T22:58:08.123Z,80.30
2018-07-06T23:00:36.740Z,80.20
2018-07-06T23:03:06.199Z,80.20
2018-07-06T23:05:34.885Z,79.79
2018-07-06T23:08:03.352Z,80.73
2018-07-06T23:10:31.967Z,80.46
2018-07-06T23:13:00.531Z,79.99
2018-07-06T23:15:29.096Z,79.63
2018-07-06T23:17:57.663Z,80.47
2018-07-06T23:20:26.107Z,80.58
2018-07-06T23:23:00.998Z,81.52
2018-07-06T23:25:29.814Z,81.29
2018-07-06T23:27:58.399Z,82.50
2018-07-06T23:30:27.251Z,84.53
2018-07-06T23:32:56.764Z,86.90
2018-07-06T23:35:25.433Z,87.59
2018-07-06T23:37:54.140Z,88.14
2018-07-06T23:40:22.802Z,88.64
2018-07-06T23:42:51.299Z,89.19
2018-07-06T23:45:20.240Z,89.78
2018-07-06T23:47:48.788Z,89.63
2018-07-06T23:50:17.762Z,90.26
2018-07-06T23:52:46.847Z,89.68
2018-07-06T23:55:15.840Z,89.84
2018-07-06T23:57:44.734Z,89.69
